Time;durP1;ratioP1;P1;durP2;ratioP2;P2;SDS_P1;SDS_P2;PMS_P1;PMS_P2;Temp;Humidity;BMP_temperature;BMP_pressure;BME280_temperature;BME280_humidity;BME280_pressure;Samples;Min_cycle;Max_cycle;Signal;HPM_P1;HPM_P2
2022/05/16 00:01:04;;;;;;;20.25;3.92;;;;;;;18.03;53.90;101318.88;5037420;28;20128;-82
2022/05/16 00:03:30;;;;;;;17.20;3.92;;;;;;;17.96;53.92;101318.00;5041314;28;20020;-81
2022/05/16 00:05:55;;;;;;;21.13;4.55;;;;;;;17.92;54.43;101305.91;5058102;28;20032;-81
2022/05/16 00:08:21;;;;;;;13.20;3.83;;;;;;;17.92;53.77;101311.31;5040879;28;20033;-85
2022/05/16 00:10:46;;;;;;;15.20;4.40;;;;;;;17.92;53.82;101307.78;5059059;28;20064;-80
2022/05/16 00:13:11;;;;;;;13.90;3.97;;;;;;;17.90;54.34;101310.66;5059630;28;20116;-84
2022/05/16 00:15:37;;;;;;;13.05;4.00;;;;;;;17.88;54.14;101301.94;5058397;28;20033;-82
2022/05/16 00:18:03;;;;;;;16.83;4.07;;;;;;;17.84;54.46;101306.88;5057925;28;20151;-84
2022/05/16 00:20:28;;;;;;;16.25;4.43;;;;;;;17.82;54.72;101310.78;5057282;28;20036;-82
2022/05/16 00:22:53;;;;;;;15.40;4.10;;;;;;;17.79;55.25;101308.50;5055941;28;20540;-81
2022/05/16 00:25:19;;;;;;;17.98;4.43;;;;;;;17.77;54.99;101306.00;5038470;28;20456;-81
2022/05/16 00:27:45;;;;;;;15.85;4.40;;;;;;;17.73;55.24;101299.31;5040020;28;20086;-84
2022/05/16 00:30:14;;;;;;;16.45;4.40;;;;;;;17.69;55.72;101296.16;5041935;28;20261;-84
2022/05/16 00:32:40;;;;;;;20.08;4.60;;;;;;;17.66;55.68;101282.22;5038432;28;20024;-83
2022/05/16 00:35:08;;;;;;;9.38;4.20;;;;;;;17.68;55.44;101290.97;5034966;28;20233;-81
2022/05/16 00:37:33;;;;;;;15.05;4.85;;;;;;;17.62;56.13;101286.38;5036738;28;20024;-84
2022/05/16 00:39:59;;;;;;;17.48;4.95;;;;;;;17.64;56.01;101287.00;5037946;28;20441;-83
2022/05/16 00:42:24;;;;;;;16.70;4.70;;;;;;;17.61;56.04;101290.09;5037581;28;20025;-84
2022/05/16 00:44:49;;;;;;;13.52;4.63;;;;;;;17.61;56.20;101276.59;5037066;28;20041;-84
2022/05/16 00:47:16;;;;;;;14.45;4.50;;;;;;;17.57;56.68;101288.81;5037944;28;20472;-84
2022/05/16 00:49:43;;;;;;;12.35;4.63;;;;;;;17.59;57.48;101286.75;5036965;28;20128;-84
2022/05/16 00:52:17;;;;;;;20.45;4.70;;;;;;;17.53;56.79;101296.47;5018492;28;20125;-84
2022/05/16 00:54:48;;;;;;;17.13;5.07;;;;;;;17.49;57.04;101290.63;5037298;28;20047;-84
2022/05/16 00:57:18;;;;;;;18.05;4.65;;;;;;;17.49;57.06;101287.91;5037758;28;20078;-85
2022/05/16 00:59:58;;;;;;;17.90;4.75;;;;;;;17.48;57.28;101280.88;5036720;28;20426;-84
2022/05/16 01:05:10;;;;;;;16.52;4.75;;;;;;;17.41;58.11;101277.25;5036152;28;20124;-84
2022/05/16 01:07:39;;;;;;;14.38;4.55;;;;;;;17.36;58.24;101276.19;5036512;28;20040;-84
2022/05/16 01:10:06;;;;;;;18.05;4.80;;;;;;;17.33;57.76;101275.53;5019122;28;20025;-84
2022/05/16 01:12:35;;;;;;;12.02;4.30;;;;;;;17.34;58.24;101279.94;5041390;28;20032;-84
2022/05/16 01:15:02;;;;;;;17.55;5.22;;;;;;;17.33;58.70;101270.16;5062022;28;20083;-85
2022/05/16 01:17:28;;;;;;;11.02;4.45;;;;;;;17.32;58.88;101275.75;5063266;28;20102;-85
2022/05/16 01:19:53;;;;;;;18.70;4.70;;;;;;;17.32;58.15;101268.47;5063178;28;20403;-85
2022/05/16 01:22:26;;;;;;;15.27;4.50;;;;;;;17.31;58.31;101266.81;5061739;28;20162;-85
2022/05/16 01:24:55;;;;;;;11.63;4.30;;;;;;;17.30;58.52;101267.84;5063399;28;20147;-84
2022/05/16 01:27:20;;;;;;;16.20;4.38;;;;;;;17.24;59.31;101273.16;5063469;28;20066;-84
2022/05/16 01:29:47;;;;;;;13.35;4.47;;;;;;;17.27;59.57;101279.00;5062766;28;20425;-84
2022/05/16 01:32:12;;;;;;;14.65;4.78;;;;;;;17.18;59.81;101272.09;5064085;28;20090;-85
2022/05/16 01:34:39;;;;;;;13.85;4.65;;;;;;;17.14;60.74;101268.97;5062790;28;20047;-84
2022/05/16 01:37:05;;;;;;;22.85;4.85;;;;;;;17.11;60.24;101269.34;5061262;28;20027;-84
2022/05/16 01:39:30;;;;;;;14.65;5.10;;;;;;;17.04;60.13;101265.75;5045193;28;20024;-85
2022/05/16 01:41:56;;;;;;;14.45;5.05;;;;;;;17.08;60.45;101271.59;5063356;28;20052;-85
2022/05/16 01:44:21;;;;;;;15.30;4.80;;;;;;;17.04;60.64;101265.75;5062769;28;20021;-84
2022/05/16 01:46:47;;;;;;;21.40;4.88;;;;;;;17.02;61.55;101256.16;5062917;28;20024;-84
2022/05/16 01:49:13;;;;;;;19.42;5.20;;;;;;;16.99;61.13;101254.72;5063835;28;20558;-85
2022/05/16 01:51:39;;;;;;;14.77;5.00;;;;;;;16.94;61.38;101246.34;5062668;28;20028;-84
2022/05/16 01:54:05;;;;;;;16.77;5.00;;;;;;;16.92;61.39;101253.78;5062563;28;20040;-84
2022/05/16 01:56:35;;;;;;;14.20;4.97;;;;;;;16.92;61.52;101257.34;5063109;28;20247;-84
2022/05/16 01:59:04;;;;;;;16.92;5.15;;;;;;;16.92;61.14;101251.09;5063369;28;20398;-84
2022/05/16 02:01:30;;;;;;;12.35;5.30;;;;;;;16.92;61.16;101245.69;5062889;28;20035;-84
2022/05/16 02:03:56;;;;;;;21.50;5.25;;;;;;;16.88;61.54;101245.25;5062768;28;20283;-84
2022/05/16 02:06:21;;;;;;;20.35;5.35;;;;;;;16.88;62.08;101249.81;5062092;28;20157;-84
2022/05/16 02:08:48;;;;;;;17.35;5.47;;;;;;;16.81;62.36;101241.63;5062442;28;20025;-82
2022/05/16 02:11:14;;;;;;;16.48;5.25;;;;;;;16.79;62.22;101241.81;5064039;28;20020;-81
2022/05/16 02:13:41;;;;;;;13.82;4.97;;;;;;;16.79;62.80;101244.50;5062628;28;20032;-84
2022/05/16 02:16:07;;;;;;;17.63;5.22;;;;;;;16.79;62.01;101241.00;5063605;28;20050;-84
2022/05/16 02:18:33;;;;;;;12.32;4.75;;;;;;;16.82;62.79;101245.16;5044172;28;20090;-82
2022/05/16 02:26:27;;;;;;;26.50;5.80;;;;;;;16.71;62.67;101231.16;5081393;28;20127;-84
2022/05/16 02:28:52;;;;;;;18.33;5.10;;;;;;;16.71;63.18;101223.06;5081824;28;20107;-84
2022/05/16 02:31:20;;;;;;;21.52;5.25;;;;;;;16.65;63.59;101222.97;5081363;28;20031;-81
2022/05/16 02:33:49;;;;;;;20.02;5.53;;;;;;;16.59;63.69;101230.00;5079334;28;20032;-81
2022/05/16 02:36:15;;;;;;;18.00;5.10;;;;;;;16.54;63.89;101218.94;5061412;28;20506;-81
2022/05/16 02:38:41;;;;;;;19.50;5.60;;;;;;;16.56;63.78;101217.75;5079310;28;20039;-81
2022/05/16 02:41:06;;;;;;;18.33;5.63;;;;;;;16.54;64.37;101213.56;5079334;28;20036;-81
2022/05/16 02:43:32;;;;;;;15.15;5.40;;;;;;;16.55;64.39;101212.53;5078674;28;20016;-82
2022/05/16 02:45:57;;;;;;;15.77;5.25;;;;;;;16.51;64.53;101206.66;5069821;28;20095;-82
2022/05/16 02:48:22;;;;;;;12.27;5.20;;;;;;;16.49;64.54;101214.13;5058259;28;20028;-82
2022/05/16 02:50:48;;;;;;;14.07;5.10;;;;;;;16.50;64.82;101206.88;5059164;28;20467;-81
2022/05/16 02:53:13;;;;;;;14.48;5.43;;;;;;;16.42;65.40;101205.97;5059799;28;20013;-82
2022/05/16 02:55:38;;;;;;;19.27;5.35;;;;;;;16.41;65.26;101204.31;5040753;28;20032;-81
2022/05/16 02:58:07;;;;;;;16.02;5.28;;;;;;;16.36;65.45;101205.88;5059570;28;20101;-81
2022/05/16 03:00:32;;;;;;;11.10;5.00;;;;;;;16.38;65.76;101195.78;5057895;28;20412;-82
2022/05/16 03:02:58;;;;;;;17.63;5.40;;;;;;;16.32;66.64;101191.13;5058643;28;20024;-82
2022/05/16 03:05:23;;;;;;;13.32;5.55;;;;;;;16.32;66.29;101186.56;5040493;28;20108;-82
2022/05/16 03:07:48;;;;;;;14.07;5.05;;;;;;;16.34;66.67;101186.38;5058560;28;20095;-81
2022/05/16 03:10:15;;;;;;;20.63;5.93;;;;;;;16.26;68.83;101191.88;5059806;28;20051;-81
2022/05/16 03:12:43;;;;;;;27.88;6.85;;;;;;;16.20;71.23;101182.72;5059775;28;20475;-81
2022/05/16 03:15:09;;;;;;;21.88;5.75;;;;;;;16.17;69.55;101181.25;5058198;28;20012;-82
2022/05/16 03:17:34;;;;;;;24.50;5.97;;;;;;;16.13;72.59;101181.81;5058075;28;20814;-81
2022/05/16 03:20:00;;;;;;;13.90;6.13;;;;;;;16.11;71.78;101175.78;5056020;28;20044;-81
2022/05/16 03:22:25;;;;;;;23.95;6.18;;;;;;;16.08;72.37;101178.84;5057348;28;20047;-81
2022/05/16 03:24:50;;;;;;;21.98;6.40;;;;;;;16.03;71.98;101177.53;5058698;28;20070;-84
2022/05/16 03:27:16;;;;;;;14.20;5.95;;;;;;;15.98;71.57;101177.25;5058471;28;20036;-84
2022/05/16 03:29:41;;;;;;;19.85;6.13;;;;;;;15.94;73.15;101184.06;5059283;28;20455;-83
2022/05/16 03:32:07;;;;;;;20.65;5.70;;;;;;;15.90;74.29;101184.63;5058485;28;20467;-84
2022/05/16 03:34:32;;;;;;;21.85;5.88;;;;;;;15.88;75.12;101186.66;5058634;28;20059;-82
2022/05/16 03:36:57;;;;;;;19.92;6.03;;;;;;;15.89;73.60;101182.97;5057831;28;20020;-81
2022/05/16 03:42:07;;;;;;;17.02;6.18;;;;;;;15.90;73.14;101193.53;5058955;28;20100;-82
2022/05/16 03:44:32;;;;;;;14.80;5.65;;;;;;;15.90;72.49;101181.94;5038741;28;20025;-81
2022/05/16 03:46:58;;;;;;;20.67;6.00;;;;;;;15.91;72.44;101186.31;5040911;28;20027;-82
2022/05/16 03:49:24;;;;;;;15.13;5.38;;;;;;;15.89;71.26;101188.34;5038456;28;20434;-81
2022/05/16 03:51:49;;;;;;;14.80;6.50;;;;;;;15.85;72.66;101187.88;5036383;28;20070;-82
2022/05/16 03:54:17;;;;;;;13.55;5.88;;;;;;;15.87;74.11;101180.47;5037377;28;20033;-81
2022/05/16 03:56:43;;;;;;;20.02;5.60;;;;;;;15.87;71.86;101168.81;5039145;28;20141;-81
2022/05/16 03:59:11;;;;;;;14.77;5.88;;;;;;;15.96;73.22;101179.31;5037286;28;20128;-81
2022/05/16 04:01:36;;;;;;;17.75;5.80;;;;;;;15.97;70.14;101188.22;5047456;28;20031;-84
2022/05/16 04:04:02;;;;;;;14.55;5.75;;;;;;;15.94;72.58;101184.06;5077580;28;20024;-81
2022/05/16 04:06:27;;;;;;;18.00;6.38;;;;;;;15.94;72.25;101186.75;5077230;28;20114;-81
2022/05/16 04:08:54;;;;;;;20.40;6.55;;;;;;;15.97;71.74;101181.00;5077693;28;20043;-80
2022/05/16 04:11:19;;;;;;;12.60;6.57;;;;;;;15.92;71.08;101172.66;5078004;28;20097;-81
2022/05/16 04:13:46;;;;;;;16.35;5.97;;;;;;;15.89;70.89;101174.88;5077615;28;20729;-81
2022/05/16 04:16:11;;;;;;;16.05;6.38;;;;;;;15.91;72.42;101183.59;5076932;28;20437;-82
2022/05/16 04:18:37;;;;;;;15.35;6.35;;;;;;;15.88;72.03;101179.41;5058946;28;20016;-81
2022/05/16 04:21:04;;;;;;;15.30;6.38;;;;;;;15.89;72.10;101183.78;5077248;28;20024;-83
2022/05/16 04:23:30;;;;;;;14.52;6.15;;;;;;;15.95;71.94;101176.81;5078260;28;20115;-84
2022/05/16 04:25:55;;;;;;;19.33;6.80;;;;;;;15.97;72.57;101186.38;5078316;28;20512;-84
2022/05/16 04:28:21;;;;;;;14.93;6.07;;;;;;;15.98;72.04;101187.22;5078593;28;20024;-85
2022/05/16 04:30:47;;;;;;;14.23;6.03;;;;;;;16.01;72.15;101197.63;5077777;28;20084;-84
2022/05/16 04:33:12;;;;;;;14.65;6.47;;;;;;;16.00;72.03;101194.09;5077289;28;20273;-84
2022/05/16 04:35:38;;;;;;;14.55;6.35;;;;;;;16.02;72.02;101193.88;5050204;28;20041;-84
2022/05/16 04:38:04;;;;;;;15.90;6.43;;;;;;;16.09;72.60;101193.97;5042499;28;20024;-84
2022/05/16 04:40:29;;;;;;;16.85;6.10;;;;;;;16.10;71.99;101192.94;5057900;28;20013;-84
2022/05/16 04:42:55;;;;;;;18.08;6.60;;;;;;;16.21;72.04;101182.50;5058126;28;20024;-84
2022/05/16 04:45:23;;;;;;;19.90;6.32;;;;;;;16.25;71.67;101199.13;5039133;28;20126;-85
2022/05/16 04:48:00;;;;;;;11.32;6.55;;;;;;;16.31;71.24;101200.22;5057818;28;20039;-85
2022/05/16 04:50:29;;;;;;;15.75;6.40;;;;;;;16.30;71.65;101201.28;5038925;28;20068;-85
2022/05/16 04:52:55;;;;;;;21.55;7.00;;;;;;;16.33;71.22;101203.59;5059587;28;20146;-81
2022/05/16 04:55:21;;;;;;;15.70;6.60;;;;;;;16.37;72.61;101197.59;5061066;28;20016;-82
2022/05/16 04:57:47;;;;;;;15.95;6.45;;;;;;;16.37;71.44;101207.56;5061217;28;20024;-83
2022/05/16 05:00:14;;;;;;;17.08;6.85;;;;;;;16.40;71.31;101202.63;5060841;28;20491;-82
2022/05/16 05:02:40;;;;;;;19.52;7.13;;;;;;;16.41;71.68;101204.31;5056066;28;20028;-80
2022/05/16 05:05:07;;;;;;;18.02;7.13;;;;;;;16.45;72.34;101201.22;5058609;28;20031;-81
2022/05/16 05:07:32;;;;;;;20.00;7.95;;;;;;;16.48;71.09;101200.81;5055788;28;20084;-80
2022/05/16 05:15:26;;;;;;;13.00;7.20;;;;;;;16.85;70.17;101207.03;5057038;28;20214;-83
2022/05/16 05:17:51;;;;;;;15.57;7.40;;;;;;;16.99;69.68;101210.69;5057198;28;20049;-85
2022/05/16 05:20:17;;;;;;;15.00;7.38;;;;;;;17.13;69.68;101196.28;5057151;28;20522;-83
2022/05/16 05:22:45;;;;;;;18.83;7.45;;;;;;;17.33;67.84;101201.81;5058233;28;20044;-84
2022/05/16 05:25:19;;;;;;;17.40;7.45;;;;;;;17.55;67.74;101193.63;5044685;28;20033;-83
2022/05/16 05:27:46;;;;;;;15.55;7.55;;;;;;;17.66;66.54;101204.72;5036217;28;20074;-82
2022/05/16 05:30:15;;;;;;;17.80;7.50;;;;;;;17.77;66.88;101218.69;5048236;28;20236;-82
2022/05/16 05:32:42;;;;;;;20.88;8.05;;;;;;;17.81;66.33;101210.00;5023737;28;20687;-82
2022/05/16 05:35:08;;;;;;;17.02;8.27;;;;;;;17.81;65.65;101204.59;5045731;28;20021;-81
2022/05/16 05:37:35;;;;;;;18.80;8.50;;;;;;;17.87;65.92;101202.97;5038465;28;20131;-82
2022/05/16 05:40:01;;;;;;;18.83;8.48;;;;;;;17.84;65.57;101196.09;5058111;28;20475;-81
2022/05/16 05:42:28;;;;;;;19.63;8.52;;;;;;;17.91;67.08;101195.34;5038395;28;20056;-82
2022/05/16 05:44:53;;;;;;;16.05;8.23;;;;;;;18.02;65.96;101198.25;5057625;28;20025;-82
2022/05/16 05:47:20;;;;;;;21.02;8.40;;;;;;;18.10;67.05;101207.25;5056840;28;20055;-82
2022/05/16 05:49:45;;;;;;;24.25;8.73;;;;;;;18.15;65.98;101215.59;5057676;28;20790;-82
2022/05/16 05:52:10;;;;;;;15.95;8.40;;;;;;;18.17;65.17;101210.81;5056603;28;20024;-82
2022/05/16 05:54:36;;;;;;;19.83;8.30;;;;;;;18.17;65.27;101225.16;5056407;28;20116;-82
2022/05/16 05:57:02;;;;;;;19.88;7.95;;;;;;;18.17;65.48;101225.16;5055722;28;20605;-82
2022/05/16 05:59:28;;;;;;;16.15;8.07;;;;;;;18.21;65.84;101230.97;5056392;28;20512;-82
2022/05/16 06:01:53;;;;;;;19.00;7.63;;;;;;;18.17;65.95;101222.44;5054027;28;20021;-81
2022/05/16 06:04:19;;;;;;;23.88;7.38;;;;;;;18.26;66.61;101231.22;5039309;28;20031;-82
2022/05/16 06:06:46;;;;;;;21.20;7.25;;;;;;;18.30;66.00;101227.09;5040367;28;20029;-82
2022/05/16 06:09:12;;;;;;;24.48;7.25;;;;;;;18.35;66.31;101232.72;5040861;28;20053;-82
2022/05/16 06:11:37;;;;;;;12.55;6.93;;;;;;;18.45;66.30;101226.94;5039826;28;20127;-82
2022/05/16 06:14:03;;;;;;;18.70;6.78;;;;;;;18.51;64.92;101231.50;5038640;28;20036;-81
2022/05/16 06:16:28;;;;;;;17.92;7.13;;;;;;;18.54;65.14;101232.97;5039255;28;20048;-81
2022/05/16 06:18:53;;;;;;;18.67;6.68;;;;;;;18.61;64.83;101234.63;5040218;28;20020;-81
2022/05/16 06:21:19;;;;;;;19.30;6.63;;;;;;;18.63;64.84;101247.97;5039965;28;20013;-81
2022/05/16 06:23:44;;;;;;;15.27;6.78;;;;;;;18.72;64.82;101237.78;5026052;28;20028;-81
2022/05/16 06:26:09;;;;;;;15.93;7.72;;;;;;;18.80;64.26;101251.97;5059806;28;20528;-81
2022/05/16 06:28:39;;;;;;;20.00;6.93;;;;;;;18.82;65.21;101251.75;5059500;28;20107;-81
2022/05/16 06:31:05;;;;;;;22.92;7.70;;;;;;;18.84;64.80;101252.44;5059898;28;20052;-81
2022/05/16 06:33:30;;;;;;;22.55;7.50;;;;;;;18.74;65.09;101244.66;5060298;28;20150;-84
2022/05/16 06:35:57;;;;;;;18.58;7.40;;;;;;;18.76;64.80;101255.28;5060198;28;20024;-85
2022/05/16 06:38:28;;;;;;;20.42;7.53;;;;;;;18.81;65.86;101259.03;5060239;28;20042;-85
2022/05/16 06:40:55;;;;;;;16.15;7.40;;;;;;;18.97;65.19;101259.72;5060595;28;20137;-81
2022/05/16 06:43:24;;;;;;;17.33;7.40;;;;;;;19.07;65.17;101262.84;5060152;28;20024;-81
2022/05/16 06:45:51;;;;;;;17.25;7.80;;;;;;;19.29;63.99;101257.22;5041551;28;20028;-82
2022/05/16 06:48:17;;;;;;;18.05;6.43;;;;;;;19.51;64.26;101265.97;5059378;28;20017;-81
2022/05/16 06:50:44;;;;;;;18.83;7.20;;;;;;;19.84;62.27;101263.25;5058896;28;20570;-82
2022/05/16 06:53:19;;;;;;;17.90;6.85;;;;;;;20.07;62.26;101265.44;5040231;28;20660;-81
2022/05/16 06:55:45;;;;;;;19.05;6.47;;;;;;;20.17;61.91;101272.31;5051909;28;20028;-81
2022/05/16 06:58:10;;;;;;;12.52;6.53;;;;;;;20.25;63.22;101274.78;5075179;28;20455;-81
2022/05/16 07:00:36;;;;;;;17.58;6.57;;;;;;;20.28;62.45;101263.47;5058926;28;20107;-82
2022/05/16 07:03:02;;;;;;;14.75;6.22;;;;;;;20.34;63.61;101272.66;5056696;28;20153;-82
2022/05/16 07:05:28;;;;;;;17.60;6.00;;;;;;;20.41;63.98;101260.72;5045377;28;20035;-81
2022/05/16 07:07:55;;;;;;;15.02;5.78;;;;;;;20.51;63.55;101281.97;5078560;28;20016;-82
2022/05/16 07:10:21;;;;;;;15.32;5.55;;;;;;;20.53;63.22;101274.44;5079006;28;20111;-81
2022/05/16 07:12:46;;;;;;;12.32;5.72;;;;;;;20.53;62.43;101284.47;5068998;28;20320;-81
2022/05/16 07:15:13;;;;;;;14.95;5.32;;;;;;;20.53;63.18;101287.16;5040535;28;20406;-82
2022/05/16 07:17:39;;;;;;;16.17;5.35;;;;;;;20.57;63.49;101291.97;5075510;28;20073;-82
2022/05/16 07:20:05;;;;;;;19.00;4.47;;;;;;;20.64;62.78;101289.25;5063378;28;20377;-82
2022/05/16 07:22:30;;;;;;;10.77;4.38;;;;;;;20.72;62.53;101286.25;5071088;28;20023;-81
2022/05/16 07:24:58;;;;;;;13.00;4.50;;;;;;;20.80;61.25;101296.03;5060136;28;20051;-81
2022/05/16 07:30:08;;;;;;;13.52;4.47;;;;;;;20.73;61.10;101298.78;5063907;28;20114;-81
2022/05/16 07:32:41;;;;;;;12.93;4.53;;;;;;;20.66;61.77;101289.84;5053059;28;20166;-82
2022/05/16 07:35:09;;;;;;;13.60;4.57;;;;;;;20.69;63.18;101297.56;5059089;28;20337;-82
2022/05/16 07:37:34;;;;;;;17.55;4.60;;;;;;;20.68;61.63;101291.28;5075609;28;20506;-82
2022/05/16 07:40:00;;;;;;;14.20;4.60;;;;;;;20.68;62.59;101296.72;5060430;28;20020;-81
2022/05/16 07:42:26;;;;;;;10.50;4.57;;;;;;;20.77;62.34;101285.59;5073002;28;20047;-81
2022/05/16 07:44:51;;;;;;;10.77;4.40;;;;;;;20.88;61.89;101289.53;5070999;28;20028;-82
2022/05/16 07:47:16;;;;;;;12.00;4.18;;;;;;;20.97;61.41;101296.34;5082642;28;20028;-81
2022/05/16 07:49:42;;;;;;;14.20;4.72;;;;;;;21.03;61.12;101295.47;5065065;28;20044;-81
2022/05/16 07:52:07;;;;;;;15.75;4.65;;;;;;;21.15;61.08;101301.03;5065881;28;20102;-85
2022/05/16 07:54:34;;;;;;;13.50;4.03;;;;;;;21.21;61.52;101298.25;5074067;28;20124;-86
2022/05/16 07:57:00;;;;;;;14.38;4.60;;;;;;;21.29;61.03;101304.47;5072316;28;20301;-81
2022/05/16 07:59:25;;;;;;;16.08;4.50;;;;;;;21.32;61.05;101304.03;5044824;28;20016;-82
2022/05/16 08:01:51;;;;;;;14.70;4.47;;;;;;;21.29;61.02;101302.56;5057296;28;20464;-81
2022/05/16 08:04:17;;;;;;;12.88;4.13;;;;;;;21.34;61.85;101300.03;5078128;28;20028;-81
2022/05/16 08:06:42;;;;;;;11.43;4.47;;;;;;;21.37;61.94;101312.34;5069150;28;20561;-81
2022/05/16 08:11:51;;;;;;;14.32;4.15;;;;;;;21.20;63.20;101314.78;5075730;28;20043;-81
2022/05/16 08:14:16;;;;;;;15.13;4.65;;;;;;;21.10;63.21;101314.44;5039792;28;20008;-80
2022/05/16 08:16:42;;;;;;;11.82;4.50;;;;;;;21.00;64.21;101314.91;5067974;28;20090;-81
2022/05/16 08:19:07;;;;;;;13.73;4.50;;;;;;;20.96;64.96;101311.81;5064502;28;20016;-82
2022/05/16 08:21:33;;;;;;;16.17;4.43;;;;;;;21.18;65.26;101317.72;5043591;28;20067;-83
2022/05/16 08:23:59;;;;;;;10.45;4.00;;;;;;;21.38;65.82;101314.81;5039902;28;20352;-86
2022/05/16 08:26:24;;;;;;;13.10;4.40;;;;;;;21.59;63.66;101324.53;5057888;28;20035;-86
2022/05/16 08:28:50;;;;;;;12.50;4.10;;;;;;;21.73;63.11;101316.25;5051378;28;20413;-86
2022/05/16 08:31:15;;;;;;;7.22;4.00;;;;;;;21.89;63.85;101323.78;5058008;28;20420;-83
2022/05/16 08:33:41;;;;;;;16.80;3.75;;;;;;;22.11;63.24;101321.47;5057917;28;20217;-86
2022/05/16 08:41:51;;;;;;;17.98;4.38;;;;;;;22.77;60.87;101319.00;5036533;28;20245;-84
2022/05/16 08:44:29;;;;;;;13.57;3.80;;;;;;;23.02;60.71;101320.78;5046119;28;20044;-81
2022/05/16 08:47:16;;;;;;;18.33;3.90;;;;;;;23.34;59.24;101323.25;5047325;28;20017;-81
2022/05/16 08:49:50;;;;;;;17.33;3.75;;;;;;;23.73;59.05;101321.72;5037442;28;20064;-81
2022/05/16 08:52:19;;;;;;;15.60;4.10;;;;;;;24.08;56.40;101331.78;5037360;28;20108;-85
2022/05/16 08:54:53;;;;;;;16.73;3.67;;;;;;;24.35;57.87;101326.63;5059376;28;20031;-85
2022/05/16 08:57:31;;;;;;;12.18;3.53;;;;;;;24.62;55.70;101328.84;5057398;28;20602;-85
2022/05/16 09:00:09;;;;;;;8.65;3.53;;;;;;;24.84;52.97;101323.53;5058452;28;20498;-84
2022/05/16 09:02:36;;;;;;;10.25;3.13;;;;;;;24.95;52.44;101319.09;5038706;28;20032;-85
2022/05/16 09:05:18;;;;;;;11.85;2.90;;;;;;;25.19;51.72;101327.97;5057835;28;20052;-85
2022/05/16 09:07:53;;;;;;;11.88;2.60;;;;;;;25.33;49.97;101325.78;5058139;28;20131;-85
2022/05/16 09:10:39;;;;;;;14.52;2.78;;;;;;;25.54;49.70;101326.09;5058700;28;20082;-84
2022/05/16 09:13:24;;;;;;;8.90;2.83;;;;;;;25.63;49.36;101313.66;5057157;28;20040;-85
2022/05/16 09:16:01;;;;;;;17.70;2.83;;;;;;;25.71;50.11;101309.66;5057559;28;20103;-82
2022/05/16 09:18:38;;;;;;;16.65;2.72;;;;;;;26.00;49.42;101315.84;5058189;28;20028;-81
2022/05/16 09:21:28;;;;;;;9.15;2.70;;;;;;;26.09;47.57;101317.06;5058783;28;20056;-82
2022/05/16 09:24:21;;;;;;;8.57;2.78;;;;;;;25.94;46.42;101303.16;5057215;28;20036;-85
2022/05/16 09:26:54;;;;;;;9.50;2.70;;;;;;;26.17;46.74;101310.31;5058282;28;20060;-85
2022/05/16 09:29:26;;;;;;;9.23;2.40;;;;;;;26.24;46.17;101305.50;5058174;28;20543;-84
2022/05/16 09:31:56;;;;;;;6.75;2.83;;;;;;;26.35;45.39;101299.03;5057415;28;20028;-85
2022/05/16 09:34:21;;;;;;;9.93;2.67;;;;;;;26.52;47.89;101300.88;5055401;28;20025;-83
2022/05/16 09:36:51;;;;;;;6.97;2.53;;;;;;;26.66;45.14;101309.56;5042181;28;20082;-85
2022/05/16 09:39:23;;;;;;;6.65;2.60;;;;;;;26.83;45.16;101318.50;5042614;28;20025;-85
2022/05/16 09:41:48;;;;;;;15.15;2.65;;;;;;;27.02;45.55;101318.13;5042442;28;20036;-85
2022/05/16 09:44:32;;;;;;;11.07;2.50;;;;;;;27.07;43.64;101324.50;5042321;28;20029;-84
2022/05/16 09:47:32;;;;;;;10.60;2.60;;;;;;;27.10;44.63;101334.91;5043797;28;20276;-84
2022/05/16 09:50:23;;;;;;;13.18;2.03;;;;;;;27.21;45.12;101330.38;5042830;28;20097;-85
2022/05/16 09:53:14;;;;;;;11.65;3.08;;;;;;;27.39;43.67;101334.66;5062666;28;20374;-86
2022/05/16 09:55:54;;;;;;;7.03;2.60;;;;;;;27.48;44.33;101340.50;5052408;28;20094;-85
2022/05/16 09:58:24;;;;;;;13.90;2.80;;;;;;;27.45;43.35;101339.09;5062278;28;20115;-85
2022/05/16 10:01:00;;;;;;;13.73;2.90;;;;;;;27.54;43.80;101356.72;5062119;28;20098;-83
2022/05/16 10:03:50;;;;;;;40.20;6.25;;;;;;;27.48;43.10;101362.44;5061700;28;20127;-84
2022/05/16 10:06:54;;;;;;;7.53;2.80;;;;;;;27.62;42.77;101368.31;5056796;28;20517;-84
2022/05/16 10:09:32;;;;;;;15.25;2.67;;;;;;;27.40;43.31;101366.50;5018287;28;20041;-85
2022/05/16 10:11:57;;;;;;;12.63;3.05;;;;;;;27.16;43.96;101369.53;5041320;28;20032;-84
2022/05/16 10:14:22;;;;;;;13.25;3.30;;;;;;;27.12;44.07;101381.28;5042652;28;20028;-84
2022/05/16 10:16:51;;;;;;;14.68;3.08;;;;;;;26.91;44.55;101378.31;5042085;28;20119;-84
2022/05/16 10:19:26;;;;;;;13.38;3.65;;;;;;;26.98;45.97;101384.44;5043545;28;20025;-84
2022/05/16 10:22:05;;;;;;;9.57;3.28;;;;;;;26.96;44.92;101377.56;5047137;28;20036;-82
2022/05/16 10:24:37;;;;;;;14.77;2.83;;;;;;;26.97;46.18;101384.72;5049502;28;20039;-83
2022/05/16 10:27:07;;;;;;;10.75;3.20;;;;;;;26.86;45.94;101385.69;5047568;28;20033;-83
2022/05/16 10:29:37;;;;;;;11.02;3.58;;;;;;;26.76;47.37;101394.59;5046947;28;20047;-85
2022/05/16 10:35:10;;;;;;;14.52;3.55;;;;;;;26.29;47.66;101400.56;5053367;28;20510;-80
2022/05/16 10:37:43;;;;;;;8.13;3.35;;;;;;;26.08;49.37;101403.00;5062153;28;20024;-80
2022/05/16 10:40:15;;;;;;;11.02;3.40;;;;;;;25.62;51.71;101421.41;5061534;28;20495;-82
2022/05/16 10:43:03;;;;;;;17.02;3.50;;;;;;;25.25;53.72;101425.38;5061619;28;20025;-84
2022/05/16 10:45:31;;;;;;;22.70;3.78;;;;;;;24.79;55.84;101431.88;5064728;28;20040;-83
2022/05/16 10:48:08;;;;;;;24.65;4.28;;;;;;;24.39;57.22;101449.88;5062296;28;20051;-83
2022/05/16 10:50:52;;;;;;;22.52;4.57;;;;;;;24.22;59.11;101455.22;5063714;28;20115;-84
2022/05/16 10:53:23;;;;;;;15.32;4.60;;;;;;;23.62;62.45;101450.69;5043120;28;20388;-83
2022/05/16 10:55:57;;;;;;;;;;;;;;;23.58;63.01;101452.25;5062234;28;20040;-84
2022/05/16 10:58:57;;;;;;;10.45;4.65;;;;;;;23.73;63.40;101466.28;5061744;28;20395;-83
2022/05/16 11:01:40;;;;;;;13.30;4.72;;;;;;;23.88;63.05;101467.75;5061098;28;20024;-84
2022/05/16 11:04:18;;;;;;;17.65;5.40;;;;;;;23.84;63.19;101473.66;5063201;28;20088;-84
2022/05/16 11:07:07;;;;;;;10.75;5.00;;;;;;;23.91;61.20;101468.09;5060987;28;20036;-85
2022/05/16 11:09:50;;;;;;;14.98;5.38;;;;;;;24.05;61.42;101473.34;5062252;28;20449;-85
2022/05/16 11:12:27;;;;;;;11.77;5.00;;;;;;;23.81;62.42;101485.06;5062497;28;20096;-86
2022/05/16 11:15:22;;;;;;;13.73;4.97;;;;;;;23.18;65.66;101490.97;5043602;28;20059;-83
2022/05/16 11:18:20;;;;;;;14.43;5.25;;;;;;;22.52;70.50;101498.78;5042665;28;20059;-87
2022/05/16 11:20:55;;;;;;;13.02;5.05;;;;;;;21.92;75.71;101504.75;5061415;28;20450;-84
2022/05/16 11:23:47;;;;;;;16.02;5.88;;;;;;;21.70;83.91;101510.53;5035508;28;20032;-85
2022/05/16 11:26:22;;;;;;;18.85;6.50;;;;;;;21.39;89.73;101504.00;5050105;28;20104;-86
2022/05/16 11:29:20;;;;;;;16.10;6.80;;;;;;;21.27;89.88;101505.72;5024314;28;20764;-85
2022/05/16 11:31:53;;;;;;;24.15;7.20;;;;;;;21.49;91.78;101509.00;5041313;28;20033;-85
2022/05/16 11:34:30;;;;;;;18.52;6.97;;;;;;;21.57;89.55;101503.31;5049066;28;20028;-84
2022/05/16 11:37:21;;;;;;;18.75;8.05;;;;;;;21.78;89.18;101507.56;5050108;28;20025;-85
2022/05/16 11:40:01;;;;;;;23.63;8.05;;;;;;;21.87;86.94;101510.00;5040737;28;20062;-85
2022/05/16 11:42:45;;;;;;;16.77;8.23;;;;;;;21.85;88.76;101510.22;5059244;28;20046;-85
2022/05/16 11:45:22;;;;;;;17.98;8.38;;;;;;;21.85;88.80;101512.94;5058462;28;20028;-83
2022/05/16 11:48:09;;;;;;;20.15;8.95;;;;;;;21.73;89.35;101522.88;5049997;28;20024;-83
2022/05/16 11:50:48;;;;;;;16.52;8.70;;;;;;;21.59;90.87;101525.66;5059104;28;20112;-80
2022/05/16 11:53:58;;;;;;;18.27;8.60;;;;;;;21.75;90.16;101521.56;5043421;28;20025;-84
2022/05/16 12:02:17;;;;;;;24.42;10.15;;;;;;;22.50;86.17;101522.69;5039591;28;20091;-81
2022/05/16 12:04:47;;;;;;;22.55;10.10;;;;;;;22.67;86.01;101526.50;5039871;28;20035;-83